Time;durP1;ratioP1;P1;durP2;ratioP2;P2;SDS_P1;SDS_P2;PMS_P1;PMS_P2;Temp;Humidity;BMP_temperature;BMP_pressure;BME280_temperature;BME280_humidity;BME280_pressure;Samples;Min_cycle;Max_cycle;Signal;HPM_P1;HPM_P2
2023/04/22 00:00:35;;;;;;;4.82;2.50;;;;;;;;;;6312190;22;20042;-86
2023/04/22 00:03:07;;;;;;;6.43;2.50;;;;;;;;;;6314832;22;20022;-87
2023/04/22 00:05:35;;;;;;;5.60;2.60;;;;;;;;;;6311513;22;20348;-87
2023/04/22 00:08:03;;;;;;;5.05;2.80;;;;;;;;;;6314694;22;20023;-87
2023/04/22 00:10:31;;;;;;;5.30;2.60;;;;;;;;;;6313661;22;20015;-87
2023/04/22 00:12:59;;;;;;;7.45;3.13;;;;;;;;;;6313432;22;20023;-87
2023/04/22 00:15:33;;;;;;;9.85;2.88;;;;;;;;;;6311599;22;20015;-87
2023/04/22 00:21:19;;;;;;;6.68;1.92;;;;;;;;;;6312784;22;20073;-86
2023/04/22 00:23:49;;;;;;;5.38;2.60;;;;;;;;;;6312382;22;20512;-87
2023/04/22 00:26:17;;;;;;;5.45;2.97;;;;;;;;;;6287060;22;20015;-88
2023/04/22 00:29:09;;;;;;;5.53;2.80;;;;;;;;;;6310732;22;20072;-86
2023/04/22 00:31:41;;;;;;;6.55;2.47;;;;;;;;;;6313081;22;20030;-87
2023/04/22 00:34:09;;;;;;;5.40;2.70;;;;;;;;;;6285382;22;20027;-87
2023/04/22 00:37:01;;;;;;;4.63;2.42;;;;;;;;;;6309710;22;20520;-87
2023/04/22 00:39:29;;;;;;;6.53;2.92;;;;;;;;;;6286567;22;20080;-87
2023/04/22 00:41:57;;;;;;;5.10;2.22;;;;;;;;;;6311482;22;20019;-88
2023/04/22 00:44:25;;;;;;;3.83;1.88;;;;;;;;;;6311464;22;20090;-87
2023/04/22 00:46:53;;;;;;;7.70;2.67;;;;;;;;;;6311046;22;20611;-87
2023/04/22 00:49:22;;;;;;;5.05;2.70;;;;;;;;;;6311362;22;20011;-88
2023/04/22 00:51:55;;;;;;;8.68;3.20;;;;;;;;;;6285667;22;20019;-88
2023/04/22 00:54:28;;;;;;;5.35;2.83;;;;;;;;;;6312207;22;20019;-88
2023/04/22 00:56:56;;;;;;;9.07;2.90;;;;;;;;;;6300599;22;20451;-88
2023/04/22 00:59:29;;;;;;;7.25;2.85;;;;;;;;;;6285631;22;20015;-88
2023/04/22 01:01:57;;;;;;;6.25;2.88;;;;;;;;;;6310404;22;20332;-87
2023/04/22 01:04:25;;;;;;;7.80;2.20;;;;;;;;;;6312932;22;20061;-86
2023/04/22 01:07:00;;;;;;;6.65;2.97;;;;;;;;;;6312909;22;20019;-86
2023/04/22 01:09:27;;;;;;;7.82;2.88;;;;;;;;;;6286026;22;20012;-86
2023/04/22 01:12:21;;;;;;;6.55;3.00;;;;;;;;;;6312758;22;20096;-87
2023/04/22 01:14:53;;;;;;;5.88;2.53;;;;;;;;;;6310022;22;20106;-88
2023/04/22 01:17:28;;;;;;;5.43;3.00;;;;;;;;;;6312089;22;20382;-88
2023/04/22 01:19:55;;;;;;;5.22;2.80;;;;;;;;;;6285907;22;20019;-89
2023/04/22 01:25:27;;;;;;;5.28;2.80;;;;;;;;;;6313299;22;20015;-88
2023/04/22 01:27:55;;;;;;;7.13;3.08;;;;;;;;;;6311358;22;20023;-87
2023/04/22 01:30:23;;;;;;;5.15;2.83;;;;;;;;;;6309501;22;20019;-88
2023/04/22 01:32:55;;;;;;;4.78;2.72;;;;;;;;;;6311428;22;20069;-87
2023/04/22 01:35:29;;;;;;;5.72;3.13;;;;;;;;;;6312489;22;20019;-87
2023/04/22 01:37:57;;;;;;;4.82;2.95;;;;;;;;;;6310722;22;20061;-86
2023/04/22 01:40:25;;;;;;;5.28;3.10;;;;;;;;;;6312887;22;20458;-88
2023/04/22 01:42:53;;;;;;;6.93;3.30;;;;;;;;;;6312729;22;20019;-87
2023/04/22 01:45:21;;;;;;;7.18;3.15;;;;;;;;;;6311212;22;20023;-87
2023/04/22 01:47:59;;;;;;;5.68;3.30;;;;;;;;;;6309376;22;20122;-87
2023/04/22 01:50:27;;;;;;;7.38;3.45;;;;;;;;;;6311136;22;20011;-88
2023/04/22 01:52:56;;;;;;;4.97;2.88;;;;;;;;;;6284190;22;20399;-86
2023/04/22 01:55:23;;;;;;;6.13;3.05;;;;;;;;;;6309361;22;20023;-87
2023/04/22 01:58:20;;;;;;;5.43;3.00;;;;;;;;;;6312503;22;20346;-88
2023/04/22 02:00:47;;;;;;;6.20;3.05;;;;;;;;;;6300136;22;20283;-87
2023/04/22 02:03:19;;;;;;;6.40;3.30;;;;;;;;;;6310449;22;20042;-87
2023/04/22 02:06:13;;;;;;;5.07;3.08;;;;;;;;;;6310633;22;20529;-87
2023/04/22 02:08:41;;;;;;;7.30;3.25;;;;;;;;;;6309622;22;20015;-87
2023/04/22 02:11:09;;;;;;;6.32;3.08;;;;;;;;;;6311432;22;20019;-87
2023/04/22 02:13:38;;;;;;;5.97;3.33;;;;;;;;;;6310873;22;20046;-87
2023/04/22 02:16:06;;;;;;;7.07;3.30;;;;;;;;;;6310048;22;20019;-87
2023/04/22 02:18:33;;;;;;;7.57;3.42;;;;;;;;;;6310574;22;20026;-87
2023/04/22 02:21:01;;;;;;;8.38;3.17;;;;;;;;;;6299931;22;20033;-87
2023/04/22 02:23:29;;;;;;;9.23;3.80;;;;;;;;;;6312289;22;20829;-87
2023/04/22 02:25:57;;;;;;;6.25;3.20;;;;;;;;;;6285638;22;20015;-88
2023/04/22 02:28:29;;;;;;;6.95;3.63;;;;;;;;;;6310684;22;20019;-87
2023/04/22 02:30:57;;;;;;;5.97;3.08;;;;;;;;;;6309425;22;20367;-88
2023/04/22 02:33:25;;;;;;;7.43;3.53;;;;;;;;;;6273420;22;20058;-87
2023/04/22 02:35:53;;;;;;;12.80;4.05;;;;;;;;;;6309840;22;20019;-87
2023/04/22 02:38:25;;;;;;;8.38;4.07;;;;;;;;;;6311470;22;20443;-87
2023/04/22 02:40:53;;;;;;;5.50;3.47;;;;;;;;;;6283540;22;20034;-87
2023/04/22 02:43:21;;;;;;;5.85;2.95;;;;;;;;;;6311180;22;20022;-86
2023/04/22 02:45:49;;;;;;;6.88;3.75;;;;;;;;;;6310479;22;20043;-87
2023/04/22 02:48:17;;;;;;;8.65;3.88;;;;;;;;;;6311600;22;20023;-88
2023/04/22 02:50:45;;;;;;;8.45;3.50;;;;;;;;;;6310986;22;20057;-87
2023/04/22 02:53:13;;;;;;;8.52;3.63;;;;;;;;;;6310134;22;20019;-87
2023/04/22 02:55:41;;;;;;;6.55;3.25;;;;;;;;;;6310320;22;20344;-88
2023/04/22 02:58:09;;;;;;;7.70;3.80;;;;;;;;;;6272801;22;20089;-87
2023/04/22 03:00:43;;;;;;;9.90;3.63;;;;;;;;;;6310442;22;20054;-88
2023/04/22 03:06:11;;;;;;;6.43;3.53;;;;;;;;;;6311980;22;20130;-87
2023/04/22 03:08:39;;;;;;;6.85;3.47;;;;;;;;;;6312273;22;20023;-87
2023/04/22 03:11:07;;;;;;;9.57;4.03;;;;;;;;;;6312390;22;20444;-87
2023/04/22 03:13:39;;;;;;;8.73;4.25;;;;;;;;;;6312091;22;20039;-87
2023/04/22 03:16:07;;;;;;;7.43;3.72;;;;;;;;;;6314223;22;20102;-87
2023/04/22 03:18:35;;;;;;;7.13;3.65;;;;;;;;;;6312722;22;20459;-88
2023/04/22 03:21:27;;;;;;;7.68;4.30;;;;;;;;;;6274835;22;20042;-87
2023/04/22 03:24:01;;;;;;;10.35;4.03;;;;;;;;;;6312835;22;20022;-87
2023/04/22 03:26:31;;;;;;;9.45;3.50;;;;;;;;;;6287477;22;20023;-87
2023/04/22 03:28:59;;;;;;;9.43;3.83;;;;;;;;;;6284809;22;20019;-87
2023/04/22 03:31:27;;;;;;;7.82;3.75;;;;;;;;;;6311016;22;20011;-87
2023/04/22 03:36:49;;;;;;;6.57;3.85;;;;;;;;;;6311651;22;20019;-88
2023/04/22 03:39:17;;;;;;;10.05;4.22;;;;;;;;;;6311109;22;20043;-87
2023/04/22 03:42:09;;;;;;;8.48;4.10;;;;;;;;;;6313450;22;20069;-88
2023/04/22 03:45:03;;;;;;;7.75;3.83;;;;;;;;;;6310568;22;20019;-87
2023/04/22 03:47:44;;;;;;;7.93;3.80;;;;;;;;;;6311555;22;20017;-88
2023/04/22 03:50:21;;;;;;;6.95;4.22;;;;;;;;;;6311668;22;20023;-87
2023/04/22 03:52:51;;;;;;;8.02;4.10;;;;;;;;;;6249086;22;20134;-87
2023/04/22 03:55:21;;;;;;;7.18;4.20;;;;;;;;;;6311996;22;20015;-87
2023/04/22 03:57:51;;;;;;;9.00;4.03;;;;;;;;;;6312788;22;20035;-87
2023/04/22 04:00:19;;;;;;;6.55;3.70;;;;;;;;;;6305545;22;20025;-87
2023/04/22 04:02:53;;;;;;;8.07;4.10;;;;;;;;;;6273497;22;20015;-86
2023/04/22 04:05:27;;;;;;;7.30;4.10;;;;;;;;;;6311128;22;20043;-87
2023/04/22 04:07:55;;;;;;;10.13;4.30;;;;;;;;;;6286917;22;20426;-86
2023/04/22 04:10:25;;;;;;;7.43;4.05;;;;;;;;;;6250985;22;20069;-87
2023/04/22 04:12:57;;;;;;;7.38;4.22;;;;;;;;;;6312079;22;20094;-87
2023/04/22 04:15:27;;;;;;;7.95;4.30;;;;;;;;;;6310937;22;20489;-87
2023/04/22 04:17:55;;;;;;;12.27;4.80;;;;;;;;;;6310792;22;20087;-87
2023/04/22 04:20:31;;;;;;;8.38;4.32;;;;;;;;;;6310174;22;20016;-88
2023/04/22 04:23:03;;;;;;;7.30;3.67;;;;;;;;;;6310042;22;20810;-86
2023/04/22 04:25:36;;;;;;;9.55;3.85;;;;;;;;;;6276438;22;20034;-86
2023/04/22 04:28:10;;;;;;;6.93;4.15;;;;;;;;;;6311769;22;20023;-88
2023/04/22 04:31:03;;;;;;;8.05;4.63;;;;;;;;;;6311370;22;20057;-88
2023/04/22 04:33:38;;;;;;;9.05;4.65;;;;;;;;;;6274864;22;20027;-87
2023/04/22 04:36:05;;;;;;;7.57;4.05;;;;;;;;;;6275341;22;20023;-87
2023/04/22 04:38:39;;;;;;;8.52;4.53;;;;;;;;;;6274084;22;20019;-85
2023/04/22 04:41:08;;;;;;;7.93;4.35;;;;;;;;;;6313030;22;20118;-88
2023/04/22 04:43:41;;;;;;;8.68;4.80;;;;;;;;;;6311440;22;20022;-88
2023/04/22 04:46:19;;;;;;;7.47;3.92;;;;;;;;;;6287942;22;20015;-88
2023/04/22 04:48:53;;;;;;;8.32;4.28;;;;;;;;;;6287223;22;20015;-87
2023/04/22 04:51:21;;;;;;;8.57;4.80;;;;;;;;;;6284822;22;20021;-87
2023/04/22 04:53:53;;;;;;;8.63;3.92;;;;;;;;;;6285129;22;20114;-87
2023/04/22 04:56:29;;;;;;;9.80;4.57;;;;;;;;;;6310826;22;20019;-87
2023/04/22 04:58:57;;;;;;;8.68;4.85;;;;;;;;;;6311773;22;20510;-87
2023/04/22 05:01:49;;;;;;;9.02;4.65;;;;;;;;;;6309267;22;20026;-87
2023/04/22 05:04:17;;;;;;;7.82;4.90;;;;;;;;;;6311812;22;20452;-87
2023/04/22 05:06:45;;;;;;;9.85;4.70;;;;;;;;;;6286685;22;20019;-87
2023/04/22 05:09:17;;;;;;;10.60;5.03;;;;;;;;;;6308344;22;20021;-87
2023/04/22 05:11:47;;;;;;;8.27;4.20;;;;;;;;;;6311473;22;20019;-87
2023/04/22 05:14:21;;;;;;;7.70;4.55;;;;;;;;;;6310642;22;20038;-87
2023/04/22 05:16:49;;;;;;;8.70;4.15;;;;;;;;;;6309146;22;20030;-88
2023/04/22 05:19:17;;;;;;;7.13;3.78;;;;;;;;;;6300929;22;20467;-87
2023/04/22 05:21:47;;;;;;;7.30;4.47;;;;;;;;;;6311752;22;20015;-87
2023/04/22 05:24:15;;;;;;;8.70;4.68;;;;;;;;;;6310219;22;20361;-85
2023/04/22 05:26:43;;;;;;;8.65;4.47;;;;;;;;;;6249944;22;20050;-87
2023/04/22 05:29:15;;;;;;;13.13;4.35;;;;;;;;;;6310590;22;20062;-87
2023/04/22 05:31:43;;;;;;;8.25;4.22;;;;;;;;;;6274109;22;20641;-88
2023/04/22 05:34:11;;;;;;;10.93;5.10;;;;;;;;;;6309598;22;20030;-87
2023/04/22 05:36:43;;;;;;;9.65;4.55;;;;;;;;;;6311273;22;20019;-87
2023/04/22 05:39:11;;;;;;;10.77;4.45;;;;;;;;;;6310436;22;20475;-87
2023/04/22 05:41:45;;;;;;;10.00;4.45;;;;;;;;;;6309768;22;20011;-87
2023/04/22 05:44:13;;;;;;;8.32;4.50;;;;;;;;;;6311071;22;20179;-87
2023/04/22 05:47:31;;;;;;;8.65;4.45;;;;;;;;;;6312061;22;20093;-87
2023/04/22 05:50:05;;;;;;;8.27;4.60;;;;;;;;;;6309476;22;20011;-87
2023/04/22 05:52:59;;;;;;;10.98;5.07;;;;;;;;;;6309771;22;20113;-86
2023/04/22 05:55:29;;;;;;;7.45;3.72;;;;;;;;;;6284822;22;20015;-87
2023/04/22 05:57:59;;;;;;;8.70;5.20;;;;;;;;;;6310975;22;20475;-88
2023/04/22 06:00:57;;;;;;;10.23;5.15;;;;;;;;;;6296593;22;20051;-87
2023/04/22 06:03:49;;;;;;;9.55;5.53;;;;;;;;;;6310751;22;20015;-88
2023/04/22 06:06:17;;;;;;;6.15;3.45;;;;;;;;;;6311178;22;20015;-87
2023/04/22 06:09:09;;;;;;;10.43;5.13;;;;;;;;;;6309174;22;20143;-87
2023/04/22 06:11:53;;;;;;;8.88;5.00;;;;;;;;;;6295291;22;20077;-87
2023/04/22 06:14:24;;;;;;;10.20;5.07;;;;;;;;;;6311352;22;20019;-87
2023/04/22 06:17:17;;;;;;;9.98;5.13;;;;;;;;;;6311189;22;20477;-87
2023/04/22 06:19:47;;;;;;;11.63;5.35;;;;;;;;;;6310010;22;20049;-87
2023/04/22 06:22:19;;;;;;;10.10;5.13;;;;;;;;;;6310335;22;20019;-88
2023/04/22 06:24:47;;;;;;;8.80;3.97;;;;;;;;;;6286729;22;20088;-88
2023/04/22 06:27:46;;;;;;;8.75;5.20;;;;;;;;;;6312259;22;20848;-87
2023/04/22 06:30:15;;;;;;;13.50;4.47;;;;;;;;;;6308466;22;20007;-87
2023/04/22 06:32:57;;;;;;;10.02;5.03;;;;;;;;;;6276809;22;20023;-89
2023/04/22 06:35:25;;;;;;;8.27;5.05;;;;;;;;;;6311064;22;20521;-87
2023/04/22 06:37:59;;;;;;;13.20;5.78;;;;;;;;;;6311224;22;20019;-87
2023/04/22 06:40:38;;;;;;;8.43;5.10;;;;;;;;;;6287365;22;20090;-86
2023/04/22 06:43:21;;;;;;;8.63;5.25;;;;;;;;;;6277316;22;20069;-88
2023/04/22 06:46:33;;;;;;;9.80;4.72;;;;;;;;;;6313349;22;20014;-88
2023/04/22 06:49:07;;;;;;;4.82;2.65;;;;;;;;;;6314003;22;20015;-88
2023/04/22 06:55:59;;;;;;;9.63;6.22;;;;;;;;;;6311451;22;20018;-88
2023/04/22 06:59:39;;;;;;;9.00;4.97;;;;;;;;;;6312097;22;20034;-88
2023/04/22 07:02:50;;;;;;;7.18;4.43;;;;;;;;;;6178421;23;20032;-88
2023/04/22 07:05:20;;;;;;;9.43;4.78;;;;;;;;;;6178792;23;20071;-88
2023/04/22 07:08:13;;;;;;;8.95;5.22;;;;;;;;;;6104305;23;20080;-89
2023/04/22 07:10:41;;;;;;;10.57;4.88;;;;;;;;;;6163474;23;20101;-88
2023/04/22 07:14:00;;;;;;;11.40;5.70;;;;;;;;;;6102910;23;20034;-88
2023/04/22 07:16:27;;;;;;;10.18;5.38;;;;;;;;;;6077063;23;20104;-90
2023/04/22 07:18:55;;;;;;;10.65;5.50;;;;;;;;;;6099462;23;20657;-89
2023/04/22 07:21:23;;;;;;;10.80;5.00;;;;;;;;;;6076057;23;20064;-89
2023/04/22 07:23:51;;;;;;;7.25;4.70;;;;;;;;;;6101208;23;20030;-89
2023/04/22 07:26:21;;;;;;;9.60;5.03;;;;;;;;;;6071996;23;20030;-88
2023/04/22 07:28:53;;;;;;;11.95;4.82;;;;;;;;;;6219077;23;20034;-87
2023/04/22 07:32:12;;;;;;;9.50;5.03;;;;;;;;;;6209504;23;20635;-87
2023/04/22 07:35:35;;;;;;;10.85;5.03;;;;;;;;;;6061740;23;20054;-88
2023/04/22 07:38:19;;;;;;;8.20;4.93;;;;;;;;;;6004584;23;20585;-88
2023/04/22 07:41:31;;;;;;;8.95;4.65;;;;;;;;;;5982320;23;20087;-89
2023/04/22 07:43:59;;;;;;;9.65;5.03;;;;;;;;;;6012802;23;20027;-89
2023/04/22 07:47:02;;;;;;;9.20;4.80;;;;;;;;;;6013270;23;20035;-89
2023/04/22 07:50:09;;;;;;;8.32;4.20;;;;;;;;;;6059355;23;20022;-88
2023/04/22 07:53:03;;;;;;;9.32;5.22;;;;;;;;;;6088175;23;20296;-90
2023/04/22 07:56:01;;;;;;;8.00;5.13;;;;;;;;;;6088420;23;20559;-89
2023/04/22 07:58:29;;;;;;;10.75;5.07;;;;;;;;;;6095245;23;20034;-89
2023/04/22 08:00:57;;;;;;;8.85;5.15;;;;;;;;;;6066808;23;20023;-88
2023/04/22 08:03:25;;;;;;;10.02;5.35;;;;;;;;;;6070352;23;20632;-89
2023/04/22 08:05:59;;;;;;;9.15;5.05;;;;;;;;;;6093215;23;20026;-89
2023/04/22 08:08:27;;;;;;;7.13;5.00;;;;;;;;;;6067575;23;20203;-89
2023/04/22 08:10:55;;;;;;;10.40;5.28;;;;;;;;;;6115653;23;20040;-89
2023/04/22 08:13:27;;;;;;;10.27;5.50;;;;;;;;;;6193870;23;20031;-88
2023/04/22 08:16:02;;;;;;;9.13;5.43;;;;;;;;;;6302683;22;20038;-88
2023/04/22 08:18:29;;;;;;;8.90;5.22;;;;;;;;;;6312381;22;20591;-88
2023/04/22 08:20:57;;;;;;;12.15;5.03;;;;;;;;;;6313527;22;20025;-89
2023/04/22 08:23:35;;;;;;;11.07;5.43;;;;;;;;;;6274162;22;20084;-88
2023/04/22 08:26:07;;;;;;;8.68;5.20;;;;;;;;;;6314123;22;20023;-88
2023/04/22 08:28:35;;;;;;;7.70;4.95;;;;;;;;;;6276675;22;20020;-89
2023/04/22 08:31:09;;;;;;;8.70;4.88;;;;;;;;;;6309941;22;20088;-89
2023/04/22 08:33:38;;;;;;;9.35;5.47;;;;;;;;;;6311281;22;20015;-88
2023/04/22 08:36:08;;;;;;;7.70;4.80;;;;;;;;;;6312419;22;20125;-89
2023/04/22 08:38:37;;;;;;;10.05;5.50;;;;;;;;;;6310254;22;20015;-88
2023/04/22 08:41:06;;;;;;;8.30;5.10;;;;;;;;;;6313972;22;20458;-88
2023/04/22 08:43:33;;;;;;;7.63;5.05;;;;;;;;;;6314268;22;20023;-89
2023/04/22 08:46:01;;;;;;;10.55;5.38;;;;;;;;;;6312344;22;20019;-88
2023/04/22 08:48:53;;;;;;;12.18;4.68;;;;;;;;;;6312557;22;20026;-88
2023/04/22 08:51:25;;;;;;;9.50;5.07;;;;;;;;;;6301665;22;20098;-88
2023/04/22 08:53:53;;;;;;;10.35;5.32;;;;;;;;;;6311607;22;20018;-88
2023/04/22 08:56:45;;;;;;;9.05;4.43;;;;;;;;;;6312651;22;20018;-88
2023/04/22 08:59:40;;;;;;;8.48;4.97;;;;;;;;;;6313081;22;20026;-88
2023/04/22 09:02:18;;;;;;;11.80;5.20;;;;;;;;;;6313137;22;20126;-88
2023/04/22 09:04:49;;;;;;;8.80;4.85;;;;;;;;;;6313705;22;20019;-88
2023/04/22 09:07:26;;;;;;;9.70;5.22;;;;;;;;;;6312375;22;20719;-88
2023/04/22 09:09:57;;;;;;;8.13;4.75;;;;;;;;;;6312360;22;20086;-88
2023/04/22 09:12:30;;;;;;;8.93;4.68;;;;;;;;;;6312503;22;20007;-89
2023/04/22 09:15:05;;;;;;;7.75;4.55;;;;;;;;;;6301511;22;20340;-89
2023/04/22 09:17:36;;;;;;;10.15;4.82;;;;;;;;;;6311987;22;20076;-89
2023/04/22 09:20:11;;;;;;;10.88;4.60;;;;;;;;;;6311177;22;20023;-88
2023/04/22 09:22:45;;;;;;;12.43;4.28;;;;;;;;;;6311903;22;20019;-88
2023/04/22 09:25:21;;;;;;;13.52;4.53;;;;;;;;;;6312922;22;20757;-89
2023/04/22 09:27:49;;;;;;;8.48;4.55;;;;;;;;;;6312502;22;20019;-87
2023/04/22 09:30:22;;;;;;;8.45;5.05;;;;;;;;;;6310640;22;20019;-88
2023/04/22 09:33:16;;;;;;;8.40;4.63;;;;;;;;;;6311210;22;20501;-89
2023/04/22 09:35:43;;;;;;;11.75;4.70;;;;;;;;;;6310976;22;20086;-88
2023/04/22 09:38:21;;;;;;;12.00;4.55;;;;;;;;;;6310979;22;20039;-88
2023/04/22 09:40:49;;;;;;;6.55;3.80;;;;;;;;;;6308703;22;20019;-88
2023/04/22 09:44:15;;;;;;;7.15;4.38;;;;;;;;;;6300294;22;20036;-88
2023/04/22 09:46:49;;;;;;;6.97;3.85;;;;;;;;;;6310937;22;20015;-88
2023/04/22 09:49:20;;;;;;;8.70;4.35;;;;;;;;;;6309275;22;20076;-89
2023/04/22 09:51:47;;;;;;;7.82;4.18;;;;;;;;;;6312596;22;20057;-89
2023/04/22 09:55:00;;;;;;;7.05;4.07;;;;;;;;;;6300264;22;20031;-90
2023/04/22 09:57:38;;;;;;;7.35;3.92;;;;;;;;;;6309783;22;20510;-89
2023/04/22 10:00:12;;;;;;;12.07;5.55;;;;;;;;;;6298434;22;20033;-88
2023/04/22 10:03:05;;;;;;;;;;;;;;;;;;6311747;22;20015;-89
2023/04/22 10:05:37;;;;;;;7.03;4.05;;;;;;;;;;6286021;22;19914;-89
2023/04/22 10:08:07;;;;;;;12.68;4.20;;;;;;;;;;6307653;22;20019;-88
2023/04/22 10:10:39;;;;;;;9.68;3.90;;;;;;;;;;6299232;22;20068;-89
2023/04/22 10:13:07;;;;;;;7.32;4.28;;;;;;;;;;6311149;22;20011;-89
2023/04/22 10:15:40;;;;;;;7.22;3.63;;;;;;;;;;6308687;22;20019;-89
2023/04/22 10:18:17;;;;;;;5.57;3.75;;;;;;;;;;6309252;22;20114;-90
2023/04/22 10:21:24;;;;;;;8.13;3.88;;;;;;;;;;6299745;22;20106;-88
2023/04/22 10:23:53;;;;;;;6.85;3.72;;;;;;;;;;6283295;22;20026;-89
2023/04/22 10:26:47;;;;;;;7.63;3.97;;;;;;;;;;6311470;22;20025;-89
2023/04/22 10:30:07;;;;;;;8.45;4.05;;;;;;;;;;6309858;22;20011;-89
2023/04/22 10:32:39;;;;;;;11.25;4.10;;;;;;;;;;6285104;22;20313;-88
2023/04/22 10:35:13;;;;;;;6.88;3.72;;;;;;;;;;6311506;22;20405;-89
2023/04/22 10:37:42;;;;;;;5.47;3.13;;;;;;;;;;6311661;22;20037;-89
2023/04/22 10:40:18;;;;;;;6.78;3.05;;;;;;;;;;6309488;22;20016;-88
2023/04/22 10:45:45;;;;;;;8.13;3.58;;;;;;;;;;6311405;22;20072;-89
2023/04/22 10:48:13;;;;;;;6.45;3.25;;;;;;;;;;6308991;22;20094;-89
2023/04/22 10:50:45;;;;;;;6.03;3.45;;;;;;;;;;6309657;22;20019;-88
2023/04/22 10:53:35;;;;;;;6.85;3.17;;;;;;;;;;6310791;22;20080;-89
2023/04/22 10:56:16;;;;;;;7.47;3.35;;;;;;;;;;6310805;22;20068;-88
2023/04/22 10:58:45;;;;;;;6.13;3.88;;;;;;;;;;6275016;22;20019;-89
2023/04/22 11:01:16;;;;;;;7.68;3.05;;;;;;;;;;6311239;22;20506;-89
2023/04/22 11:03:43;;;;;;;5.53;3.00;;;;;;;;;;6298517;22;20026;-89
2023/04/22 11:06:26;;;;;;;6.95;3.10;;;;;;;;;;6311594;22;20343;-89
2023/04/22 11:09:11;;;;;;;8.40;2.67;;;;;;;;;;6309894;22;20019;-89
2023/04/22 11:11:39;;;;;;;7.30;3.75;;;;;;;;;;6309491;22;20038;-89
2023/04/22 11:14:07;;;;;;;6.47;2.95;;;;;;;;;;6273753;22;20026;-89
2023/04/22 11:16:35;;;;;;;5.00;2.97;;;;;;;;;;6273559;22;20019;-89
2023/04/22 11:19:05;;;;;;;7.25;3.20;;;;;;;;;;6309170;22;20016;-89
2023/04/22 11:21:37;;;;;;;6.20;3.03;;;;;;;;;;6310991;22;20033;-89
2023/04/22 11:24:17;;;;;;;4.82;3.17;;;;;;;;;;6310236;22;20042;-89
2023/04/22 11:26:45;;;;;;;4.85;3.17;;;;;;;;;;6298725;22;20019;-89
2023/04/22 11:29:13;;;;;;;6.20;3.00;;;;;;;;;;6312392;22;20493;-89
2023/04/22 11:31:47;;;;;;;4.72;3.00;;;;;;;;;;6302477;22;20018;-89
2023/04/22 11:34:15;;;;;;;6.72;2.97;;;;;;;;;;6274093;22;20023;-88
2023/04/22 11:36:45;;;;;;;5.90;3.22;;;;;;;;;;6313383;22;20015;-89
2023/04/22 11:39:15;;;;;;;10.48;3.30;;;;;;;;;;6311091;22;20026;-89
2023/04/22 11:41:43;;;;;;;5.72;3.10;;;;;;;;;;6250385;22;20345;-89
2023/04/22 11:44:15;;;;;;;7.53;3.50;;;;;;;;;;6311353;22;20022;-89
2023/04/22 11:49:37;;;;;;;6.35;3.22;;;;;;;;;;6311955;22;20033;-90
2023/04/22 11:52:05;;;;;;;6.25;3.22;;;;;;;;;;6311245;22;20051;-88
2023/04/22 11:54:37;;;;;;;8.43;3.15;;;;;;;;;;6311861;22;20015;-89
2023/04/22 11:57:08;;;;;;;4.10;2.60;;;;;;;;;;6310454;22;20034;-88
2023/04/22 11:59:35;;;;;;;5.65;3.10;;;;;;;;;;6312421;22;20046;-89
2023/04/22 12:02:06;;;;;;;4.38;2.75;;;;;;;;;;6284759;22;20012;-89
2023/04/22 12:04:39;;;;;;;4.78;3.00;;;;;;;;;;6309241;22;20023;-89
2023/04/22 12:07:11;;;;;;;7.90;3.00;;;;;;;;;;6311549;22;20076;-89
2023/04/22 12:09:39;;;;;;;4.40;2.85;;;;;;;;;;6313014;22;20493;-89
2023/04/22 12:12:07;;;;;;;4.90;3.10;;;;;;;;;;6311356;22;20086;-89
2023/04/22 12:15:10;;;;;;;5.60;3.10;;;;;;;;;;6313215;22;20497;-88
2023/04/22 12:17:49;;;;;;;5.50;3.20;;;;;;;;;;6311529;22;20092;-89
2023/04/22 12:20:17;;;;;;;7.72;2.80;;;;;;;;;;6311065;22;20019;-90
2023/04/22 12:22:45;;;;;;;7.03;3.30;;;;;;;;;;6310798;22;20020;-89
2023/04/22 12:25:18;;;;;;;6.22;2.72;;;;;;;;;;6312654;22;20069;-89
2023/04/22 12:27:45;;;;;;;8.38;3.10;;;;;;;;;;6312352;22;20023;-88
2023/04/22 12:30:37;;;;;;;5.15;3.13;;;;;;;;;;6313187;22;20011;-89
2023/04/22 12:34:00;;;;;;;6.55;3.10;;;;;;;;;;6311178;22;20026;-89
2023/04/22 12:36:31;;;;;;;6.85;2.75;;;;;;;;;;6272359;22;20023;-89
2023/04/22 12:38:59;;;;;;;5.53;2.95;;;;;;;;;;6310939;22;20089;-89
2023/04/22 12:41:51;;;;;;;6.13;2.97;;;;;;;;;;6308642;22;20025;-90
2023/04/22 12:44:23;;;;;;;7.18;3.13;;;;;;;;;;6309296;22;20080;-88
2023/04/22 12:46:51;;;;;;;5.72;3.30;;;;;;;;;;6312989;22;20023;-90
2023/04/22 12:49:19;;;;;;;4.93;2.95;;;;;;;;;;6300697;22;20023;-90
2023/04/22 12:51:51;;;;;;;5.43;3.10;;;;;;;;;;6296760;22;20352;-90
2023/04/22 12:54:19;;;;;;;7.97;3.20;;;;;;;;;;6311951;22;20026;-89
2023/04/22 12:56:47;;;;;;;6.60;3.03;;;;;;;;;;6311341;22;20015;-88
2023/04/22 12:59:15;;;;;;;9.00;3.08;;;;;;;;;;6312389;22;20506;-89
2023/04/22 13:01:43;;;;;;;5.57;2.75;;;;;;;;;;6311630;22;20018;-89
2023/04/22 13:04:11;;;;;;;4.95;2.70;;;;;;;;;;6310798;22;20015;-89
2023/04/22 13:06:40;;;;;;;7.05;3.25;;;;;;;;;;6311395;22;20019;-89
2023/04/22 13:09:11;;;;;;;5.70;2.90;;;;;;;;;;6309853;22;20023;-89
2023/04/22 13:12:05;;;;;;;4.97;2.90;;;;;;;;;;6299554;22;20109;-89
2023/04/22 13:14:33;;;;;;;6.68;3.53;;;;;;;;;;6313529;22;20015;-90
2023/04/22 13:17:02;;;;;;;6.70;2.97;;;;;;;;;;6310868;22;20735;-91
2023/04/22 13:19:31;;;;;;;5.25;2.95;;;;;;;;;;6311912;22;20065;-89
2023/04/22 13:21:59;;;;;;;5.35;2.80;;;;;;;;;;6312933;22;20019;-90
2023/04/22 13:24:27;;;;;;;8.73;2.70;;;;;;;;;;6300713;22;20027;-88
2023/04/22 13:26:55;;;;;;;7.25;2.75;;;;;;;;;;6311102;22;20019;-90
2023/04/22 13:29:23;;;;;;;6.72;2.65;;;;;;;;;;6312295;22;20041;-89
2023/04/22 13:31:51;;;;;;;8.35;2.90;;;;;;;;;;6297262;22;20023;-89
2023/04/22 13:34:19;;;;;;;4.57;2.50;;;;;;;;;;6311659;22;20019;-89
2023/04/22 13:36:51;;;;;;;6.28;2.83;;;;;;;;;;6299718;22;20336;-88
2023/04/22 13:39:43;;;;;;;6.25;3.30;;;;;;;;;;6309268;22;20065;-89
2023/04/22 13:42:11;;;;;;;5.00;2.55;;;;;;;;;;6300383;22;20422;-90
2023/04/22 13:44:43;;;;;;;5.70;2.90;;;;;;;;;;6313048;22;20042;-89
2023/04/22 13:47:35;;;;;;;4.63;2.72;;;;;;;;;;6307864;22;20103;-88
2023/04/22 13:50:04;;;;;;;5.53;2.60;;;;;;;;;;6309534;22;20023;-88
2023/04/22 13:52:37;;;;;;;5.65;2.95;;;;;;;;;;6309408;22;20011;-89
2023/04/22 13:55:05;;;;;;;6.72;2.50;;;;;;;;;;6271773;22;20033;-89
2023/04/22 13:57:33;;;;;;;5.40;2.70;;;;;;;;;;6309025;22;20474;-89
2023/04/22 14:00:01;;;;;;;4.28;2.60;;;;;;;;;;6306010;22;20093;-87
2023/04/22 14:02:39;;;;;;;6.20;3.13;;;;;;;;;;6308540;22;20022;-88
2023/04/22 14:05:08;;;;;;;4.68;2.50;;;;;;;;;;6313930;22;20073;-87
2023/04/22 14:07:37;;;;;;;5.43;2.70;;;;;;;;;;6317917;22;20019;-89
2023/04/22 14:10:07;;;;;;;5.35;2.60;;;;;;;;;;6280741;22;20024;-90
2023/04/22 14:12:35;;;;;;;4.68;2.78;;;;;;;;;;6282355;22;20030;-89
2023/04/22 14:15:03;;;;;;;5.25;2.63;;;;;;;;;;6317866;22;20061;-89
2023/04/22 14:17:31;;;;;;;5.72;2.60;;;;;;;;;;6313861;22;20023;-89
2023/04/22 14:19:59;;;;;;;5.22;2.60;;;;;;;;;;6286851;22;20019;-90
2023/04/22 14:22:27;;;;;;;7.68;2.90;;;;;;;;;;6311784;22;20019;-93
2023/04/22 14:25:00;;;;;;;4.78;2.63;;;;;;;;;;6310986;22;20023;-93
2023/04/22 14:27:29;;;;;;;27.02;4.78;;;;;;;;;;6309759;22;20352;-88
2023/04/22 14:29:57;;;;;;;10.55;3.00;;;;;;;;;;6274006;22;20068;-88
2023/04/22 14:32:25;;;;;;;4.53;2.40;;;;;;;;;;6310348;22;20098;-88
2023/04/22 14:34:53;;;;;;;5.10;2.50;;;;;;;;;;6274943;22;20460;-88
2023/04/22 14:37:21;;;;;;;6.93;2.80;;;;;;;;;;6314335;22;20015;-88
2023/04/22 14:39:51;;;;;;;5.28;2.65;;;;;;;;;;6314136;22;20100;-88
2023/04/22 14:42:24;;;;;;;8.50;3.03;;;;;;;;;;6315342;22;20015;-88
2023/04/22 14:44:51;;;;;;;5.55;2.80;;;;;;;;;;6317595;22;20019;-88
2023/04/22 14:47:23;;;;;;;6.18;3.20;;;;;;;;;;6298922;22;20019;-86
2023/04/22 14:49:51;;;;;;;6.75;2.92;;;;;;;;;;6309919;22;20060;-86
2023/04/22 14:52:21;;;;;;;4.63;2.83;;;;;;;;;;6309520;22;20015;-86
2023/04/22 14:54:49;;;;;;;7.22;3.20;;;;;;;;;;6311205;22;20021;-87
2023/04/22 14:57:19;;;;;;;7.95;2.78;;;;;;;;;;6308498;22;20019;-86
2023/04/22 15:00:11;;;;;;;4.95;2.70;;;;;;;;;;6310349;22;20111;-88
2023/04/22 15:02:39;;;;;;;6.18;2.95;;;;;;;;;;6312188;22;20015;-86
2023/04/22 15:05:07;;;;;;;6.07;2.90;;;;;;;;;;6274048;22;20026;-84
2023/04/22 15:07:35;;;;;;;5.28;2.63;;;;;;;;;;6301389;22;20027;-85
2023/04/22 15:10:03;;;;;;;7.38;2.75;;;;;;;;;;6311955;22;20090;-87
2023/04/22 15:12:57;;;;;;;4.95;2.65;;;;;;;;;;6313665;22;20011;-86
2023/04/22 15:15:29;;;;;;;6.03;3.08;;;;;;;;;;6312862;22;20463;-87
2023/04/22 15:17:57;;;;;;;5.63;2.80;;;;;;;;;;6313019;22;20026;-87
2023/04/22 15:20:25;;;;;;;3.72;2.33;;;;;;;;;;6312203;22;20092;-86
2023/04/22 15:22:53;;;;;;;5.88;2.65;;;;;;;;;;6310691;22;20011;-87
2023/04/22 15:25:23;;;;;;;4.90;2.90;;;;;;;;;;6313655;22;20019;-86
2023/04/22 15:28:15;;;;;;;5.22;2.92;;;;;;;;;;6279188;22;20038;-86
2023/04/22 15:30:43;;;;;;;6.60;2.75;;;;;;;;;;6311483;22;20019;-87
2023/04/22 15:33:11;;;;;;;5.97;2.70;;;;;;;;;;6312868;22;20447;-86
2023/04/22 15:35:41;;;;;;;4.38;2.40;;;;;;;;;;6312878;22;20072;-85
2023/04/22 15:38:09;;;;;;;7.18;2.45;;;;;;;;;;6308981;22;20023;-86
2023/04/22 15:41:04;;;;;;;4.00;2.35;;;;;;;;;;6312696;22;20455;-86
2023/04/22 15:43:31;;;;;;;5.00;2.47;;;;;;;;;;6310167;22;20015;-85
2023/04/22 15:46:00;;;;;;;4.88;2.50;;;;;;;;;;6310449;22;20543;-86